createdAt,value
2018-07-24T00:01:07.031Z,20.03
2018-07-24T00:03:34.125Z,19.75
2018-07-24T00:06:01.269Z,19.52
2018-07-24T00:08:28.308Z,19.44
2018-07-24T00:10:55.539Z,19.30
2018-07-24T00:13:22.643Z,19.94
2018-07-24T00:15:49.710Z,20.01
2018-07-24T00:18:19.770Z,20.06
2018-07-24T00:20:46.837Z,19.50
2018-07-24T00:23:16.890Z,19.29
2018-07-24T00:25:46.920Z,19.19
2018-07-24T00:28:15.041Z,19.07
2018-07-24T00:30:44.070Z,19.07
2018-07-24T00:33:11.092Z,19.75
2018-07-24T00:35:43.252Z,19.33
2018-07-24T00:38:13.436Z,18.99
2018-07-24T00:40:41.590Z,18.86
2018-07-24T00:43:08.982Z,18.93
2018-07-24T00:45:42.405Z,18.89
2018-07-24T00:48:23.880Z,18.87
2018-07-24T00:50:55.339Z,18.78
2018-07-24T00:53:25.414Z,19.35
2018-07-24T00:55:58.637Z,19.51
2018-07-24T00:58:32.072Z,18.96
2018-07-24T01:00:59.088Z,18.73
2018-07-24T01:03:32.381Z,19.28
2018-07-24T01:06:02.484Z,18.77
2018-07-24T01:08:30.750Z,18.65
2018-07-24T01:11:00.840Z,19.20
2018-07-24T01:13:28.513Z,18.52
2018-07-24T01:15:55.552Z,18.56
2018-07-24T01:18:25.623Z,18.47
2018-07-24T01:20:53.757Z,18.38
2018-07-24T01:23:20.819Z,18.32
2018-07-24T01:25:47.915Z,18.69
2018-07-24T01:28:15.082Z,19.03
2018-07-24T01:30:43.127Z,18.45
2018-07-24T01:33:11.080Z,18.30
2018-07-24T01:35:38.200Z,18.79
2018-07-24T01:38:06.012Z,18.25
2018-07-24T01:40:33.123Z,18.12
2018-07-24T01:43:00.244Z,18.73
2018-07-24T01:45:27.245Z,18.19
2018-07-24T01:47:54.820Z,18.17
2018-07-24T01:50:21.980Z,18.79
2018-07-24T01:52:49.071Z,18.25
2018-07-24T01:55:21.867Z,18.19
2018-07-24T01:57:49.626Z,18.28
2018-07-24T02:00:17.560Z,18.18
2018-07-24T02:02:48.219Z,18.64
2018-07-24T02:05:18.344Z,18.13
2018-07-24T02:07:45.357Z,17.98
2018-07-24T02:10:12.372Z,17.90
2018-07-24T02:12:39.486Z,17.87
2018-07-24T02:15:08.659Z,17.93
2018-07-24T02:17:40.618Z,17.91
2018-07-24T02:20:08.541Z,17.72
2018-07-24T02:22:35.650Z,17.61
2018-07-24T02:25:06.000Z,17.48
2018-07-24T02:27:33.774Z,17.40
2018-07-24T02:30:00.852Z,17.46
2018-07-24T02:32:28.988Z,17.50
2018-07-24T02:34:57.643Z,17.53
2018-07-24T02:37:25.159Z,17.94
2018-07-24T02:39:54.300Z,17.62
2018-07-24T02:42:27.699Z,17.57
2018-07-24T02:44:55.133Z,17.62
2018-07-24T02:47:24.204Z,17.92
2018-07-24T02:49:54.392Z,17.85
2018-07-24T02:52:24.440Z,17.84
2018-07-24T02:54:51.613Z,17.91
2018-07-24T02:57:23.424Z,17.96
2018-07-24T02:59:50.466Z,18.44
2018-07-24T03:02:20.510Z,18.02
2018-07-24T03:04:52.598Z,17.87
2018-07-24T03:07:20.566Z,17.71
2018-07-24T03:09:47.616Z,17.58
2018-07-24T03:12:14.690Z,18.25
2018-07-24T03:14:41.776Z,17.66
2018-07-24T03:17:12.739Z,17.60
2018-07-24T03:19:39.833Z,17.42
2018-07-24T03:22:11.098Z,17.37
2018-07-24T03:24:43.136Z,17.42
2018-07-24T03:27:12.337Z,17.38
2018-07-24T03:29:40.101Z,18.00
2018-07-24T03:32:07.145Z,18.21
2018-07-24T03:34:34.221Z,17.71
2018-07-24T03:37:10.733Z,17.61
2018-07-24T03:39:38.634Z,17.35
2018-07-24T03:42:06.711Z,17.35
2018-07-24T03:44:34.635Z,17.25
2018-07-24T03:47:05.470Z,17.17
2018-07-24T03:49:35.142Z,17.03
2018-07-24T03:52:03.121Z,17.51
2018-07-24T03:54:30.224Z,17.89
2018-07-24T03:56:57.358Z,18.01
2018-07-24T03:59:25.139Z,18.07
2018-07-24T04:01:53.121Z,17.57
2018-07-24T04:04:22.156Z,18.16
2018-07-24T04:06:49.274Z,17.79
2018-07-24T04:09:20.188Z,17.67
2018-07-24T04:11:51.475Z,17.68
2018-07-24T04:14:24.596Z,17.55
2018-07-24T04:16:51.651Z,17.43
2018-07-24T04:19:18.666Z,17.59
2018-07-24T04:21:46.727Z,17.66
2018-07-24T04:24:18.709Z,17.81
2018-07-24T04:26:47.743Z,17.88
2018-07-24T04:29:18.924Z,18.10
2018-07-24T04:31:45.969Z,18.34
2018-07-24T04:34:14.064Z,18.65
2018-07-24T04:36:42.183Z,18.93
2018-07-24T04:39:12.353Z,19.09
2018-07-24T04:41:41.164Z,18.98
2018-07-24T04:44:08.325Z,19.00
2018-07-24T04:46:38.861Z,19.16
2018-07-24T04:49:06.656Z,19.41
2018-07-24T04:51:35.792Z,19.39
2018-07-24T04:54:05.896Z,19.94
2018-07-24T04:56:32.993Z,20.47
2018-07-24T04:59:00.175Z,20.93
2018-07-24T05:01:27.295Z,21.22
2018-07-24T05:03:54.519Z,21.04
2018-07-24T05:06:22.612Z,21.14
2018-07-24T05:08:50.673Z,21.05
2018-07-24T05:11:17.696Z,20.48
2018-07-24T05:13:46.655Z,20.43
2018-07-24T05:16:14.044Z,20.67
2018-07-24T05:18:41.670Z,20.43
2018-07-24T05:21:11.952Z,20.71
2018-07-24T05:23:42.051Z,20.98
2018-07-24T05:26:12.103Z,20.86
2018-07-24T05:28:39.202Z,20.92
2018-07-24T05:31:06.258Z,20.94
2018-07-24T05:33:33.325Z,21.62
2018-07-24T05:36:10.172Z,21.45
2018-07-24T05:38:39.300Z,21.80
2018-07-24T05:41:07.265Z,21.67
2018-07-24T05:43:37.402Z,21.59
2018-07-24T05:46:06.131Z,21.80
2018-07-24T05:48:33.210Z,22.03
2018-07-24T05:51:00.323Z,21.94
2018-07-24T05:53:33.675Z,22.13
2018-07-24T05:56:01.758Z,21.90
2018-07-24T05:58:29.755Z,21.77
2018-07-24T06:00:57.843Z,21.84
2018-07-24T06:03:25.009Z,22.17
2018-07-24T06:05:55.289Z,21.94
2018-07-24T06:08:26.896Z,21.91
2018-07-24T06:10:53.981Z,22.09
2018-07-24T06:13:21.089Z,22.25
2018-07-24T06:15:57.732Z,22.74
2018-07-24T06:18:25.180Z,22.74
2018-07-24T06:20:55.262Z,22.46
2018-07-24T06:23:26.511Z,22.46
2018-07-24T06:25:59.977Z,22.80
2018-07-24T06:28:33.364Z,22.61
2018-07-24T06:31:04.799Z,22.69
2018-07-24T06:33:35.842Z,22.86
2018-07-24T06:36:02.982Z,23.26
2018-07-24T06:38:30.065Z,23.10
2018-07-24T06:41:09.195Z,23.25
2018-07-24T06:43:38.294Z,23.45
2018-07-24T06:46:15.093Z,23.83
2018-07-24T06:48:51.900Z,23.65
2018-07-24T06:51:18.957Z,23.61
2018-07-24T06:53:46.084Z,23.56
2018-07-24T06:56:14.231Z,23.63
2018-07-24T06:58:42.295Z,24.15
2018-07-24T07:01:09.349Z,24.26
2018-07-24T07:03:36.456Z,24.21
2018-07-24T07:06:03.620Z,24.61
2018-07-24T07:08:30.676Z,24.57
2018-07-24T07:10:57.783Z,24.93
2018-07-24T07:13:24.902Z,24.97
2018-07-24T07:15:51.921Z,24.86
2018-07-24T07:18:18.960Z,25.11
2018-07-24T07:20:50.607Z,25.41
2018-07-24T07:23:20.714Z,25.57
2018-07-24T07:25:50.808Z,25.23
2018-07-24T07:28:17.970Z,25.36
2018-07-24T07:30:45.079Z,25.71
2018-07-24T07:33:13.237Z,25.73
2018-07-24T07:35:42.265Z,25.95
2018-07-24T07:38:10.247Z,26.15
2018-07-24T07:40:40.863Z,26.06
2018-07-24T07:43:08.745Z,26.30
2018-07-24T07:45:35.819Z,26.40
2018-07-24T07:48:02.886Z,26.18
2018-07-24T07:50:31.954Z,26.62
2018-07-24T07:53:03.054Z,26.67
2018-07-24T07:55:30.291Z,27.11
2018-07-24T07:58:00.933Z,26.72
2018-07-24T08:00:32.924Z,26.81
2018-07-24T08:03:00.022Z,27.15
2018-07-24T08:05:27.154Z,27.02
2018-07-24T08:07:54.287Z,27.14
2018-07-24T08:10:23.337Z,27.02
2018-07-24T08:12:50.404Z,27.14
2018-07-24T08:15:18.521Z,27.14
2018-07-24T08:17:47.349Z,27.61
2018-07-24T08:20:15.330Z,27.87
2018-07-24T08:22:46.251Z,27.53
2018-07-24T08:25:14.318Z,27.38
2018-07-24T08:27:41.405Z,27.50
2018-07-24T08:30:12.072Z,27.71
2018-07-24T08:32:40.815Z,27.41
2018-07-24T08:35:11.992Z,27.65
2018-07-24T08:37:41.939Z,27.65
2018-07-24T08:40:10.991Z,28.12
2018-07-24T08:42:38.269Z,28.59
2018-07-24T08:45:05.804Z,28.26
2018-07-24T08:47:32.918Z,28.34
2018-07-24T08:49:59.989Z,28.41
2018-07-24T08:52:27.127Z,28.62
2018-07-24T08:54:57.426Z,29.04
2018-07-24T08:57:24.292Z,28.77
2018-07-24T08:59:52.391Z,28.79
2018-07-24T09:02:20.363Z,29.29
2018-07-24T09:04:47.415Z,29.91
2018-07-24T09:07:14.517Z,30.51
2018-07-24T09:09:41.609Z,30.49
2018-07-24T09:12:08.758Z,30.18
2018-07-24T09:14:35.987Z,29.87
2018-07-24T09:17:06.020Z,29.62
2018-07-24T09:19:33.196Z,30.13
2018-07-24T09:22:00.373Z,30.07
2018-07-24T09:24:28.317Z,29.60
2018-07-24T09:26:55.454Z,30.24
2018-07-24T09:29:23.386Z,29.74
2018-07-24T09:31:50.474Z,29.64
2018-07-24T09:34:19.332Z,29.57
2018-07-24T09:36:46.486Z,29.60
2018-07-24T09:39:13.628Z,30.01
2018-07-24T09:41:43.917Z,30.02
2018-07-24T09:44:11.881Z,29.78
2018-07-24T09:46:38.943Z,29.86
2018-07-24T09:49:06.010Z,30.04
2018-07-24T09:51:36.284Z,30.56
2018-07-24T09:54:04.502Z,30.96
2018-07-24T09:56:32.226Z,30.96
2018-07-24T09:59:02.329Z,30.87
2018-07-24T10:01:33.254Z,31.30
2018-07-24T10:04:00.884Z,31.89
2018-07-24T10:06:33.285Z,32.22
2018-07-24T10:09:05.332Z,32.77
2018-07-24T10:11:35.375Z,32.65
2018-07-24T10:14:02.530Z,32.03
2018-07-24T10:16:30.006Z,31.57
2018-07-24T10:19:01.248Z,31.24
2018-07-24T10:21:28.909Z,30.73
2018-07-24T10:23:58.071Z,30.79
2018-07-24T10:26:25.964Z,31.63
2018-07-24T10:28:55.241Z,32.00
2018-07-24T10:31:22.413Z,31.84
2018-07-24T10:33:49.491Z,32.47
2018-07-24T10:36:16.564Z,32.38
2018-07-24T10:38:43.638Z,32.43
2018-07-24T10:41:10.755Z,31.70
2018-07-24T10:43:37.893Z,31.72
2018-07-24T10:46:05.091Z,31.76
2018-07-24T10:48:34.895Z,31.61
2018-07-24T10:51:02.889Z,31.12
2018-07-24T10:53:33.435Z,31.78
2018-07-24T10:56:01.567Z,31.51
2018-07-24T10:58:28.660Z,31.52
2018-07-24T11:00:55.916Z,30.75
2018-07-24T11:03:23.151Z,30.57
2018-07-24T11:05:51.109Z,30.70
2018-07-24T11:08:25.295Z,30.95
2018-07-24T11:10:53.461Z,31.23
2018-07-24T11:13:20.455Z,31.75
2018-07-24T11:15:47.537Z,32.12
2018-07-24T11:18:14.645Z,32.16
2018-07-24T11:20:42.509Z,32.64
2018-07-24T11:23:10.816Z,32.09
2018-07-24T11:25:40.833Z,32.02
2018-07-24T11:28:07.929Z,31.44
2018-07-24T11:30:36.976Z,31.99
2018-07-24T11:33:04.146Z,32.49
2018-07-24T11:35:31.389Z,32.22
2018-07-24T11:38:00.487Z,33.04
2018-07-24T11:40:27.604Z,33.37
2018-07-24T11:42:54.781Z,33.68
2018-07-24T11:45:23.949Z,33.82
2018-07-24T11:47:51.923Z,33.43
2018-07-24T11:50:22.137Z,33.61
2018-07-24T11:52:51.052Z,32.94
2018-07-24T11:55:21.109Z,33.30
2018-07-24T11:57:51.264Z,33.05
2018-07-24T12:00:18.321Z,33.52
2018-07-24T12:02:45.397Z,33.30
2018-07-24T12:05:14.647Z,32.79
2018-07-24T12:07:41.749Z,32.82
2018-07-24T12:10:08.862Z,32.87
2018-07-24T12:12:37.141Z,33.03
2018-07-24T12:15:04.869Z,33.35
2018-07-24T12:17:32.452Z,33.17
2018-07-24T12:19:59.631Z,32.74
2018-07-24T12:22:27.751Z,32.53
2018-07-24T12:25:06.541Z,32.64
2018-07-24T12:27:39.967Z,32.46
2018-07-24T12:30:08.108Z,32.98
2018-07-24T12:32:35.971Z,32.87
2018-07-24T12:35:07.609Z,33.01
2018-07-24T12:37:34.789Z,32.85
2018-07-24T12:40:01.966Z,33.34
2018-07-24T12:42:29.106Z,32.93
2018-07-24T12:45:00.942Z,33.20
2018-07-24T12:47:29.005Z,33.24
2018-07-24T12:49:59.915Z,33.98
2018-07-24T12:52:28.985Z,34.76
2018-07-24T12:54:59.028Z,34.38
2018-07-24T12:57:26.301Z,34.89
2018-07-24T12:59:54.110Z,35.15
2018-07-24T13:02:21.354Z,34.59
2018-07-24T13:04:48.528Z,34.68
2018-07-24T13:07:15.713Z,34.26
2018-07-24T13:09:42.939Z,34.14
2018-07-24T13:12:11.122Z,33.25
2018-07-24T13:14:38.981Z,32.53
2018-07-24T13:17:06.203Z,32.20
2018-07-24T13:19:33.517Z,32.45
2018-07-24T13:22:00.748Z,32.70
2018-07-24T13:24:27.845Z,32.77
2018-07-24T13:26:59.284Z,32.83
2018-07-24T13:29:27.063Z,33.44
2018-07-24T13:31:54.395Z,33.48
2018-07-24T13:34:21.297Z,33.40
2018-07-24T13:36:48.479Z,34.04
2018-07-24T13:39:15.593Z,34.22
2018-07-24T13:41:42.744Z,33.48
2018-07-24T13:44:10.034Z,33.73
2018-07-24T13:46:40.158Z,32.96
2018-07-24T13:49:09.079Z,33.29
2018-07-24T13:51:37.107Z,33.62
2018-07-24T13:54:04.240Z,33.48
2018-07-24T13:56:31.316Z,33.05
2018-07-24T13:58:59.450Z,33.11
2018-07-24T14:01:26.553Z,33.22
2018-07-24T14:03:55.637Z,33.42
2018-07-24T14:06:24.507Z,33.16
2018-07-24T14:08:51.702Z,33.18
2018-07-24T14:11:18.847Z,33.12
2018-07-24T14:13:45.933Z,32.99
2018-07-24T14:16:13.096Z,33.29
2018-07-24T14:18:40.189Z,33.15
2018-07-24T14:21:07.550Z,33.63
2018-07-24T14:23:34.631Z,33.81
2018-07-24T14:26:02.014Z,33.06
2018-07-24T14:28:29.071Z,33.38
2018-07-24T14:30:56.193Z,33.57
2018-07-24T14:33:23.371Z,33.18
2018-07-24T14:35:50.594Z,32.99
2018-07-24T14:38:17.783Z,32.99
2018-07-24T14:40:44.908Z,33.25
2018-07-24T14:43:13.128Z,33.60
2018-07-24T14:45:41.081Z,33.40
2018-07-24T14:48:08.137Z,33.24
2018-07-24T14:50:35.996Z,33.49
2018-07-24T14:53:03.104Z,33.58
2018-07-24T14:55:30.194Z,33.95
2018-07-24T14:57:57.284Z,34.30
2018-07-24T15:00:24.681Z,34.29
2018-07-24T15:02:52.514Z,35.56
2018-07-24T15:05:19.592Z,35.52
2018-07-24T15:07:46.668Z,35.19
2018-07-24T15:10:13.877Z,35.45
2018-07-24T15:12:44.155Z,35.39
2018-07-24T15:15:14.636Z,35.54
2018-07-24T15:17:43.679Z,36.23
2018-07-24T15:20:10.860Z,36.64
2018-07-24T15:22:39.050Z,36.30
2018-07-24T15:25:06.103Z,36.10
2018-07-24T15:27:33.212Z,36.53
2018-07-24T15:30:00.285Z,37.42
2018-07-24T15:32:29.219Z,37.81
2018-07-24T15:34:56.405Z,37.53
2018-07-24T15:37:23.416Z,37.71
2018-07-24T15:39:52.266Z,38.53
2018-07-24T15:42:19.544Z,38.60
2018-07-24T15:44:46.741Z,38.15
2018-07-24T15:47:13.976Z,38.80
2018-07-24T15:49:42.154Z,40.40
2018-07-24T15:52:09.397Z,41.27
2018-07-24T15:54:36.943Z,41.35
2018-07-24T15:57:04.024Z,42.41
2018-07-24T15:59:34.280Z,43.12
2018-07-24T16:02:01.449Z,41.66
2018-07-24T16:04:28.667Z,39.93
2018-07-24T16:06:55.833Z,38.49
2018-07-24T16:09:24.782Z,38.74
2018-07-24T16:11:51.998Z,39.20
2018-07-24T16:14:20.183Z,38.55
2018-07-24T16:16:47.229Z,39.09
2018-07-24T16:19:14.351Z,39.03
2018-07-24T16:21:41.425Z,39.82
2018-07-24T16:24:08.685Z,41.06
2018-07-24T16:26:35.841Z,40.50
2018-07-24T16:29:03.234Z,40.16
2018-07-24T16:31:30.343Z,40.29
2018-07-24T16:33:58.655Z,40.50
2018-07-24T16:36:25.980Z,39.84
2018-07-24T16:38:53.103Z,40.83
2018-07-24T16:41:21.373Z,40.32
2018-07-24T16:43:48.461Z,41.58
2018-07-24T16:46:15.755Z,40.96
2018-07-24T16:48:42.970Z,40.69
2018-07-24T16:51:10.071Z,40.68
2018-07-24T16:53:37.274Z,42.22
2018-07-24T16:56:04.453Z,42.40
2018-07-24T16:58:31.698Z,41.68
2018-07-24T17:00:58.901Z,41.78
2018-07-24T17:03:26.153Z,41.75
2018-07-24T17:05:53.451Z,42.33
2018-07-24T17:08:21.295Z,41.87
2018-07-24T17:10:49.306Z,40.79
2018-07-24T17:13:16.405Z,41.56
2018-07-24T17:15:43.522Z,41.26
2018-07-24T17:18:10.695Z,40.90
2018-07-24T17:20:37.836Z,40.46
2018-07-24T17:23:12.672Z,40.73
2018-07-24T17:25:42.853Z,41.03
2018-07-24T17:28:10.014Z,41.76
2018-07-24T17:30:37.164Z,41.42
2018-07-24T17:33:04.380Z,42.07
2018-07-24T17:35:31.665Z,41.08
2018-07-24T17:37:58.732Z,41.03
2018-07-24T17:40:27.809Z,40.82
2018-07-24T17:42:55.318Z,41.38
2018-07-24T17:45:22.549Z,41.17
2018-07-24T17:47:49.682Z,40.47
2018-07-24T17:50:16.969Z,40.32
2018-07-24T17:52:45.889Z,40.24
2018-07-24T17:55:13.138Z,40.79
2018-07-24T17:57:42.287Z,39.80
2018-07-24T18:00:12.375Z,39.68
2018-07-24T18:02:39.561Z,40.01
2018-07-24T18:05:06.652Z,39.41
2018-07-24T18:07:40.925Z,38.94
2018-07-24T18:10:08.101Z,39.00
2018-07-24T18:12:38.265Z,39.85
2018-07-24T18:15:05.432Z,38.61
2018-07-24T18:17:32.559Z,37.96
2018-07-24T18:20:00.362Z,36.90
2018-07-24T18:22:28.338Z,35.10
2018-07-24T18:24:55.518Z,33.56
2018-07-24T18:27:23.334Z,32.67
2018-07-24T18:29:50.587Z,31.88
2018-07-24T18:32:18.320Z,32.41
2018-07-24T18:34:45.453Z,32.26
2018-07-24T18:37:13.569Z,30.85
2018-07-24T18:39:40.737Z,30.35
2018-07-24T18:42:07.920Z,30.23
2018-07-24T18:44:35.145Z,29.96
2018-07-24T18:47:03.257Z,29.65
2018-07-24T18:49:30.354Z,29.40
2018-07-24T18:51:58.557Z,30.01
2018-07-24T18:54:25.609Z,29.21
2018-07-24T18:56:52.976Z,28.94
2018-07-24T18:59:20.777Z,28.53
2018-07-24T19:01:55.921Z,28.15
2018-07-24T19:04:23.127Z,28.10
2018-07-24T19:06:51.221Z,27.79
2018-07-24T19:09:18.302Z,27.51
2018-07-24T19:11:45.502Z,28.12
2018-07-24T19:14:16.532Z,27.40
2018-07-24T19:16:49.971Z,27.72
2018-07-24T19:19:17.846Z,26.93
2018-07-24T19:21:44.935Z,26.79
2018-07-24T19:24:12.120Z,26.78
2018-07-24T19:26:39.493Z,27.23
2018-07-24T19:29:06.670Z,26.32
2018-07-24T19:31:33.805Z,26.80
2018-07-24T19:34:00.940Z,26.31
2018-07-24T19:36:28.688Z,26.43
2018-07-24T19:38:55.888Z,25.94
2018-07-24T19:41:23.836Z,25.78
2018-07-24T19:43:50.959Z,25.84
2018-07-24T19:46:21.200Z,26.37
2018-07-24T19:48:50.278Z,25.79
2018-07-24T19:51:17.380Z,26.08
2018-07-24T19:53:47.975Z,25.37
2018-07-24T19:56:15.114Z,25.77
2018-07-24T19:58:42.349Z,25.38
2018-07-24T20:01:09.944Z,25.14
2018-07-24T20:03:37.285Z,24.92
2018-07-24T20:06:05.288Z,24.94
2018-07-24T20:08:34.220Z,24.95
2018-07-24T20:11:01.457Z,25.49
2018-07-24T20:13:32.352Z,24.98
2018-07-24T20:15:59.619Z,24.75
2018-07-24T20:18:30.575Z,24.54
2018-07-24T20:21:00.721Z,24.49
2018-07-24T20:23:27.870Z,24.59
2018-07-24T20:25:55.828Z,25.02
2018-07-24T20:28:26.876Z,25.13
2018-07-24T20:30:54.213Z,24.48
2018-07-24T20:33:21.591Z,24.29
2018-07-24T20:35:48.729Z,24.90
2018-07-24T20:38:16.951Z,24.49
2018-07-24T20:40:48.151Z,24.38
2018-07-24T20:43:15.927Z,24.29
2018-07-24T20:45:43.000Z,24.14
2018-07-24T20:48:10.809Z,24.44
2018-07-24T20:50:39.878Z,24.49
2018-07-24T20:53:07.048Z,24.01
2018-07-24T20:55:40.319Z,23.83
2018-07-24T20:58:10.785Z,23.85
2018-07-24T21:00:40.899Z,23.66
2018-07-24T21:03:08.017Z,23.77
2018-07-24T21:05:35.153Z,23.69
2018-07-24T21:08:03.313Z,24.26
2018-07-24T21:10:31.391Z,24.42
2018-07-24T21:13:00.417Z,23.80
2018-07-24T21:15:30.557Z,23.67
2018-07-24T21:17:57.585Z,23.63
2018-07-24T21:20:24.659Z,23.56
2018-07-24T21:22:52.434Z,24.15
2018-07-24T21:25:20.335Z,23.65
2018-07-24T21:27:47.375Z,23.65
2018-07-24T21:30:14.528Z,23.59
2018-07-24T21:32:42.302Z,23.51
2018-07-24T21:35:09.469Z,23.46
2018-07-24T21:37:36.504Z,23.33
2018-07-24T21:40:05.386Z,23.18
2018-07-24T21:42:38.843Z,23.72
2018-07-24T21:45:05.825Z,23.17
2018-07-24T21:47:32.881Z,23.71
2018-07-24T21:49:59.951Z,23.14
2018-07-24T21:52:27.079Z,23.00
2018-07-24T21:55:00.271Z,23.04
2018-07-24T21:57:30.324Z,23.62
2018-07-24T21:59:58.463Z,23.23
2018-07-24T22:02:26.332Z,23.28
2018-07-24T22:04:54.500Z,23.78
2018-07-24T22:07:21.568Z,23.26
2018-07-24T22:09:52.431Z,22.98
2018-07-24T22:12:20.424Z,22.61
2018-07-24T22:14:48.318Z,23.20
2018-07-24T22:17:15.387Z,22.43
2018-07-24T22:19:51.376Z,22.08
2018-07-24T22:22:19.363Z,21.84
2018-07-24T22:24:47.382Z,21.74
2018-07-24T22:27:21.620Z,21.68
2018-07-24T22:29:56.326Z,21.52
2018-07-24T22:32:27.816Z,21.36
2018-07-24T22:34:54.943Z,21.30
2018-07-24T22:37:22.945Z,21.99
2018-07-24T22:39:50.718Z,21.51
2018-07-24T22:42:21.326Z,20.98
2018-07-24T22:44:48.507Z,21.26
2018-07-24T22:47:18.365Z,20.90
2018-07-24T22:49:52.523Z,20.78
2018-07-24T22:52:26.041Z,20.92
2018-07-24T22:54:53.129Z,21.41
2018-07-24T22:57:20.167Z,20.58
2018-07-24T22:59:47.245Z,20.27
2018-07-24T23:02:22.527Z,20.33
2018-07-24T23:04:50.359Z,20.55
2018-07-24T23:07:17.475Z,20.66
2018-07-24T23:09:52.432Z,20.82
2018-07-24T23:12:20.738Z,20.96
2018-07-24T23:14:55.283Z,21.05
2018-07-24T23:17:22.408Z,21.04
2018-07-24T23:19:52.303Z,21.62
2018-07-24T23:22:20.422Z,21.31
2018-07-24T23:24:48.560Z,21.29
2018-07-24T23:27:15.676Z,21.80
2018-07-24T23:29:42.744Z,21.39
2018-07-24T23:32:10.362Z,21.76
2018-07-24T23:34:38.451Z,21.13
2018-07-24T23:37:12.009Z,21.63
2018-07-24T23:39:39.133Z,21.51
2018-07-24T23:42:06.207Z,20.83
2018-07-24T23:44:33.290Z,20.39
2018-07-24T23:47:00.374Z,20.37
2018-07-24T23:49:27.576Z,20.87
2018-07-24T23:52:00.911Z,20.20
2018-07-24T23:54:31.417Z,20.74
2018-07-24T23:56:59.422Z,20.22
2018-07-24T23:59:26.458Z,20.07
